Track Бледных Александр

Time Latitude Longitude Accuracy (66% radius in meters) Altitude (meters) Speed (km/hour) Bearing (degrees) Battery (%) GPS flag
08:01:18 58.655653 49.680050 2.4000000953674 111.1 0 288.04998779297 78 1 delete
08:01:16 58.655688 49.680023 2.5999999046326 110.1 0 304.01000976562 78 1 delete
08:01:06 58.655638 49.680117 3.0999999046326 109.6 0 261.57000732422 78 1 delete
08:01:05 58.655623 49.680147 3.0999999046326 109.7 0 261.57000732422 78 1 delete
08:00:59 58.655550 49.680257 3.2999999523163 108.8 0 261.57000732422 78 1 delete
08:00:56 58.655572 49.680210 3.2000000476837 108.7 0 261.57000732422 78 1 delete
08:00:46 58.655580 49.680118 2.9000000953674 107.9 0 261.57000732422 78 1 delete
08:00:35 58.655580 49.680118 2.7000000476837 107.9 0 261.57000732422 78 1 delete
08:00:25 58.655578 49.680118 2.5999999046326 109.6 0 261.57000732422 78 1 delete
08:00:15 58.655603 49.680093 3.0999999046326 108.3 1.111799955368 231.64999389648 78 1 delete
08:00:05 58.655602 49.680240 3.2999999523163 108.6 0 307.82998657227 78 1 delete
07:59:53 58.655660 49.680160 2.5 109.2 0 307.82998657227 78 1 delete
07:59:43 58.655638 49.680120 2.5 111 0 307.82998657227 78 1 delete
07:59:33 58.655660 49.680047 2.5 110.3 0 307.82998657227 78 1 delete
07:59:21 58.655640 49.680178 2.4000000953674 111.9 0 307.82998657227 78 1 delete
07:59:11 58.655622 49.680178 2.4000000953674 112 0 307.82998657227 78 1 delete
07:59:00 58.655618 49.680138 2.5999999046326 109.1 0 307.82998657227 78 1 delete
07:58:49 58.655495 49.680228 3.0999999046326 113.2 0.97282499074936 319.86999511719 78 1 delete
07:58:39 58.655538 49.680253 3.7999999523163 111.6 0 313.30999755859 82 1 delete
07:58:35 58.655533 49.680227 3.9000000953674 111 0 313.30999755859 82 1 delete
07:58:32 58.655432 49.680182 4.0999999046326 110.7 0.49258917570114 64.370002746582 82 1 delete
07:58:30 58.655305 49.680133 4.4000000953674 110.6 0.64494693279266 145.86999511719 82 1 delete
07:58:29 58.655342 49.680097 4.5 110.6 0.87863081693649 266.85998535156 82 1 delete
07:58:21 58.655398 49.680035 4.1999998092651 110.4 7.1505212783813 193.86999511719 82 1 delete
07:58:19 58.655512 49.680103 2.9000000953674 110.2 5.2918591499329 193.13999938965 82 1 delete
07:58:16 58.655613 49.680163 2.2999999523163 109.6 0 140.19999694824 82 1 delete
07:58:07 58.655642 49.680153 2.0999999046326 109.3 0 350.20999145508 82 1 delete
07:57:55 58.655635 49.680160 1.7999999523163 109.4 0 348.29998779297 82 1 delete
07:57:43 58.655618 49.680232 2 109.7 0 326.20001220703 82 1 delete
07:57:31 58.655550 49.680243 2 112.7 0 46.159999847412 82 1 delete
07:57:19 58.655550 49.680243 2.0999999046326 112.7 0 73.589996337891 82 1 delete
07:57:08 58.655550 49.680243 1.8999999761581 112.7 0 73.589996337891 82 1 delete
07:56:57 58.655542 49.680248 2.2000000476837 112.2 0 73.589996337891 82 1 delete
07:56:46 58.655577 49.680278 2.2999999523163 113.2 0 73.589996337891 82 1 delete
07:56:35 58.655578 49.680262 2.0999999046326 113.8 0 73.589996337891 82 1 delete
07:56:23 58.655578 49.680262 2.2000000476837 113.8 0 73.589996337891 82 1 delete
07:56:11 58.655578 49.680262 2.2999999523163 113.8 0 73.589996337891 82 1 delete
07:56:00 58.655578 49.680262 2.2999999523163 113.8 0 73.589996337891 82 1 delete
07:55:50 58.655578 49.680262 2.2000000476837 113.8 0 73.589996337891 82 1 delete
07:55:38 58.655578 49.680262 2.2000000476837 113.8 0 73.589996337891 82 1 delete
07:55:29 58.655585 49.680265 2.2000000476837 114.3 0 73.589996337891 82 1 delete
07:55:27 58.655652 49.680272 2.2000000476837 115.6 0 73.589996337891 82 1 delete
07:55:16 58.655652 49.680272 2 115.6 0 73.589996337891 82 1 delete
07:55:04 58.655677 49.680278 1.2999999523163 116.4 0 73.589996337891 82 1 delete
07:54:53 58.655667 49.680308 1.6000000238419 115.5 0 73.589996337891 82 1 delete
07:54:43 58.655660 49.680310 2.2000000476837 114.9 0 73.589996337891 82 1 delete
07:54:31 58.655638 49.680363 2.4000000953674 114.6 0 73.589996337891 82 1 delete
07:54:23 58.655663 49.680352 2.2999999523163 115.1 0 73.589996337891 82 1 delete
07:54:20 58.655658 49.680303 2.2999999523163 114.8 0 232.46000671387 82 1 delete
07:54:09 58.655623 49.680227 2.0999999046326 115.3 0 232.46000671387 82 1 delete